createdAt,value
2023-03-02T00:01:40.116Z,102571.16
2023-03-02T00:04:12.201Z,102569.19
2023-03-02T00:06:39.527Z,102576.53
2023-03-02T00:09:06.734Z,102580.97
2023-03-02T00:11:36.545Z,102572.56
2023-03-02T00:14:03.409Z,102574.44
2023-03-02T00:16:30.751Z,102573.75
2023-03-02T00:18:57.962Z,102572.19
2023-03-02T00:21:24.859Z,102569.19
2023-03-02T00:23:53.039Z,102573.94
2023-03-02T00:26:20.544Z,102565.13
2023-03-02T00:28:47.537Z,102584.81
2023-03-02T00:31:14.500Z,102578.59
2023-03-02T00:33:41.441Z,102576.78
2023-03-02T00:36:18.765Z,102591.34
2023-03-02T00:38:45.816Z,102566.41
2023-03-02T00:41:15.261Z,102561.16
2023-03-02T00:43:42.674Z,102559.59
2023-03-02T00:46:15.524Z,102548.97
2023-03-02T00:48:42.964Z,102553.56
2023-03-02T00:51:11.040Z,102547.91
2023-03-02T00:53:38.744Z,102543.22
2023-03-02T00:56:06.674Z,102554.50
2023-03-02T00:58:37.601Z,102544.22
2023-03-02T01:01:12.155Z,102553.63
2023-03-02T01:03:43.425Z,102555.38
2023-03-02T01:06:20.413Z,102553.50
2023-03-02T01:08:47.386Z,102555.19
2023-03-02T01:11:20.442Z,102556.75
2023-03-02T01:13:48.490Z,102563.28
2023-03-02T01:16:15.762Z,102556.22
2023-03-02T01:18:42.972Z,102556.28
2023-03-02T01:21:14.073Z,102551.63
2023-03-02T01:23:41.672Z,102546.34
2023-03-02T01:26:09.073Z,102559.69
2023-03-02T01:28:36.129Z,102552.66
2023-03-02T01:31:04.533Z,102539.13
2023-03-02T01:33:32.478Z,102544.47
2023-03-02T01:35:59.439Z,102532.53
2023-03-02T01:38:27.494Z,102530.69
2023-03-02T01:40:54.992Z,102544.63
2023-03-02T01:43:21.975Z,102544.63
2023-03-02T01:45:57.030Z,102542.66
2023-03-02T01:48:55.006Z,102539.97
2023-03-02T01:51:35.155Z,102545.31
2023-03-02T01:54:11.072Z,102546.88
2023-03-02T01:56:40.669Z,102537.66
2023-03-02T01:59:12.816Z,102537.78
2023-03-02T02:01:43.314Z,102535.66
2023-03-02T02:04:10.813Z,102535.88
2023-03-02T02:07:03.835Z,102525.13
2023-03-02T02:09:35.386Z,102519.91
2023-03-02T02:12:03.122Z,102520.34
2023-03-02T02:14:30.020Z,102527.75
2023-03-02T02:16:56.998Z,102522.97
2023-03-02T02:19:47.513Z,102517.38
2023-03-02T02:22:26.929Z,102518.59
2023-03-02T02:24:58.555Z,102520.81
2023-03-02T02:27:29.801Z,102512.88
2023-03-02T02:29:58.309Z,102503.13
2023-03-02T02:32:30.711Z,102507.47
2023-03-02T02:35:05.938Z,102505.78
2023-03-02T02:37:51.545Z,102510.03
2023-03-02T02:40:40.670Z,102513.75
2023-03-02T02:43:13.339Z,102519.22
2023-03-02T02:45:41.007Z,102522.66
2023-03-02T02:48:20.645Z,102515.44
2023-03-02T02:50:47.934Z,102511.06
2023-03-02T02:53:24.809Z,102516.31
2023-03-02T02:55:54.942Z,102500.34
2023-03-02T02:58:49.760Z,102504.00
2023-03-02T03:01:20.754Z,102493.31
2023-03-02T03:03:58.000Z,102506.38
2023-03-02T03:06:42.165Z,102501.13
2023-03-02T03:09:12.076Z,102500.03
2023-03-02T03:11:50.843Z,102499.91
2023-03-02T03:14:23.048Z,102488.88
2023-03-02T03:16:52.580Z,102498.53
2023-03-02T03:19:29.438Z,102490.63
2023-03-02T03:22:00.605Z,102489.44
2023-03-02T03:24:34.077Z,102489.38
2023-03-02T03:27:05.276Z,102502.09
2023-03-02T03:29:38.068Z,102500.78
2023-03-02T03:32:07.396Z,102486.41
2023-03-02T03:34:40.802Z,102500.78
2023-03-02T03:37:17.682Z,102505.13
2023-03-02T03:39:45.688Z,102502.78
2023-03-02T03:42:13.114Z,102502.31
2023-03-02T03:44:40.016Z,102506.97
2023-03-02T03:47:07.152Z,102507.56
2023-03-02T03:49:34.707Z,102504.34
2023-03-02T03:52:03.789Z,102502.34
2023-03-02T03:54:31.205Z,102497.00
2023-03-02T03:56:59.316Z,102477.81
2023-03-02T03:59:27.543Z,102501.81
2023-03-02T04:02:00.563Z,102499.50
2023-03-02T04:04:34.569Z,102492.59
2023-03-02T04:07:06.537Z,102491.31
2023-03-02T04:09:37.788Z,102491.97
2023-03-02T04:12:07.592Z,102486.38
2023-03-02T04:14:36.577Z,102489.75
2023-03-02T04:17:05.483Z,102490.09
2023-03-02T04:19:35.481Z,102490.44
2023-03-02T04:22:04.182Z,102486.88
2023-03-02T04:24:32.264Z,102481.84
2023-03-02T04:27:02.130Z,102499.03
2023-03-02T04:29:29.675Z,102484.97
2023-03-02T04:31:56.850Z,102491.97
2023-03-02T04:34:26.456Z,102495.56
2023-03-02T04:36:54.107Z,102483.22
2023-03-02T04:39:21.870Z,102493.06
2023-03-02T04:41:51.581Z,102500.22
2023-03-02T04:44:19.351Z,102500.56
2023-03-02T04:46:47.224Z,102500.09
2023-03-02T04:49:16.844Z,102497.97
2023-03-02T04:51:46.184Z,102503.44
2023-03-02T04:54:24.637Z,102495.63
2023-03-02T04:56:52.100Z,102500.84
2023-03-02T04:59:23.993Z,102503.88
2023-03-02T05:01:50.942Z,102503.00
2023-03-02T05:04:18.329Z,102504.00
2023-03-02T05:06:45.520Z,102500.31
2023-03-02T05:09:12.648Z,102507.00
2023-03-02T05:11:39.634Z,102495.84
2023-03-02T05:14:10.497Z,102502.88
2023-03-02T05:16:40.365Z,102507.88
2023-03-02T05:19:10.743Z,102506.31
2023-03-02T05:21:37.684Z,102496.50
2023-03-02T05:24:04.891Z,102500.16
2023-03-02T05:26:32.654Z,102506.84
2023-03-02T05:28:59.743Z,102499.34
2023-03-02T05:31:35.507Z,102505.38
2023-03-02T05:34:08.801Z,102505.72
2023-03-02T05:36:36.494Z,102502.84
2023-03-02T05:39:05.190Z,102495.91
2023-03-02T05:41:32.184Z,102505.44
2023-03-02T05:43:59.610Z,102503.84
2023-03-02T05:46:26.841Z,102500.38
2023-03-02T05:48:54.072Z,102500.97
2023-03-02T05:51:20.979Z,102493.00
2023-03-02T05:53:47.917Z,102496.00
2023-03-02T05:56:14.865Z,102501.25
2023-03-02T05:58:41.749Z,102493.88
2023-03-02T06:01:12.565Z,102506.16
2023-03-02T06:03:41.825Z,102506.81
2023-03-02T06:06:08.727Z,102505.59
2023-03-02T06:08:40.898Z,102500.56
2023-03-02T06:11:08.287Z,102504.81
2023-03-02T06:13:35.533Z,102506.91
2023-03-02T06:16:02.558Z,102499.75
2023-03-02T06:18:29.499Z,102501.94
2023-03-02T06:20:56.525Z,102499.78
2023-03-02T06:23:23.436Z,102496.97
2023-03-02T06:25:50.328Z,102500.75
2023-03-02T06:28:21.947Z,102511.34
2023-03-02T06:30:50.140Z,102515.13
2023-03-02T06:33:19.185Z,102505.72
2023-03-02T06:35:46.317Z,102507.94
2023-03-02T06:38:13.430Z,102506.34
2023-03-02T06:40:40.277Z,102508.44
2023-03-02T06:43:07.176Z,102511.13
2023-03-02T06:45:34.238Z,102498.16
2023-03-02T06:48:02.031Z,102498.66
2023-03-02T06:50:29.411Z,102513.53
2023-03-02T06:52:56.428Z,102515.97
2023-03-02T06:55:23.424Z,102517.47
2023-03-02T06:57:50.898Z,102517.34
2023-03-02T07:00:25.871Z,102521.81
2023-03-02T07:02:53.860Z,102530.59
2023-03-02T07:05:21.157Z,102504.91
2023-03-02T07:07:48.020Z,102510.56
2023-03-02T07:10:14.968Z,102511.66
2023-03-02T07:12:42.531Z,102506.63
2023-03-02T07:15:12.138Z,102510.84
2023-03-02T07:17:40.657Z,102510.84
2023-03-02T07:20:08.843Z,102502.75
2023-03-02T07:22:35.966Z,102493.28
2023-03-02T07:25:02.914Z,102491.59
2023-03-02T07:27:29.835Z,102487.53
2023-03-02T07:29:56.672Z,102490.28
2023-03-02T07:32:23.794Z,102482.81
2023-03-02T07:34:50.699Z,102476.16
2023-03-02T07:37:17.552Z,102475.59
2023-03-02T07:39:44.438Z,102475.91
2023-03-02T07:42:12.792Z,102472.72
2023-03-02T07:44:42.026Z,102471.94
2023-03-02T07:47:09.177Z,102479.16
2023-03-02T07:49:36.073Z,102481.72
2023-03-02T07:52:03.828Z,102477.47
2023-03-02T07:54:30.947Z,102486.25
2023-03-02T07:56:58.604Z,102486.38
2023-03-02T07:59:25.985Z,102480.53
2023-03-02T08:01:52.898Z,102473.81
2023-03-02T08:04:19.846Z,102481.72
2023-03-02T08:06:46.722Z,102484.47
2023-03-02T08:09:15.178Z,102481.22
2023-03-02T08:11:44.722Z,102489.75
2023-03-02T08:14:11.658Z,102494.69
2023-03-02T08:16:39.859Z,102488.66
2023-03-02T08:19:07.706Z,102492.19
2023-03-02T08:21:34.898Z,102501.72
2023-03-02T08:24:02.069Z,102498.25
2023-03-02T08:26:28.942Z,102501.31
2023-03-02T08:28:55.818Z,102499.63
2023-03-02T08:31:22.911Z,102500.88
2023-03-02T08:33:50.386Z,102491.91
2023-03-02T08:36:19.613Z,102504.44
2023-03-02T08:38:48.138Z,102504.13
2023-03-02T08:41:22.050Z,102504.13
2023-03-02T08:43:49.924Z,102501.66
2023-03-02T08:46:18.937Z,102486.50
2023-03-02T08:48:46.232Z,102494.72
2023-03-02T08:51:21.496Z,102488.63
2023-03-02T08:53:50.882Z,102487.16
2023-03-02T08:56:20.296Z,102464.25
2023-03-02T08:58:48.795Z,102475.66
2023-03-02T09:01:19.572Z,102476.53
2023-03-02T09:03:46.657Z,102473.22
2023-03-02T09:06:14.377Z,102484.19
2023-03-02T09:08:41.377Z,102467.78
2023-03-02T09:11:08.426Z,102476.19
2023-03-02T09:13:35.599Z,102459.22
2023-03-02T09:16:02.937Z,102471.31
2023-03-02T09:18:30.888Z,102466.38
2023-03-02T09:20:58.121Z,102460.63
2023-03-02T09:23:26.423Z,102458.94
2023-03-02T09:25:53.908Z,102455.28
2023-03-02T09:28:23.566Z,102463.50
2023-03-02T09:30:57.987Z,102444.38
2023-03-02T09:33:25.155Z,102455.28
2023-03-02T09:35:52.332Z,102458.50
2023-03-02T09:38:19.771Z,102444.53
2023-03-02T09:41:20.190Z,102445.09
2023-03-02T09:44:28.268Z,102445.47
2023-03-02T09:47:03.533Z,102444.38
2023-03-02T09:49:55.623Z,102441.38
2023-03-02T09:52:40.221Z,102444.13
2023-03-02T09:55:20.467Z,102448.16
2023-03-02T09:57:47.608Z,102450.91
2023-03-02T10:00:30.232Z,102456.16
2023-03-02T10:03:16.609Z,102452.94
2023-03-02T10:05:56.277Z,102446.22
2023-03-02T10:08:26.620Z,102450.66
2023-03-02T10:11:36.173Z,102464.53
2023-03-02T10:14:16.630Z,102461.34
2023-03-02T10:17:03.652Z,102458.06
2023-03-02T10:19:55.528Z,102454.56
2023-03-02T10:23:07.009Z,102466.22
2023-03-02T10:25:55.486Z,102466.53
2023-03-02T10:28:35.697Z,102469.19
2023-03-02T10:31:12.408Z,102473.34
2023-03-02T10:33:41.979Z,102469.59
2023-03-02T10:36:31.245Z,102448.63
2023-03-02T10:39:00.499Z,102471.63
2023-03-02T10:41:43.613Z,102466.34
2023-03-02T10:44:28.724Z,102466.03
2023-03-02T10:46:55.808Z,102453.56
2023-03-02T10:49:38.827Z,102459.09
2023-03-02T10:52:27.126Z,102460.91
2023-03-02T10:55:14.204Z,102448.81
2023-03-02T10:57:44.177Z,102457.34
2023-03-02T11:00:24.833Z,102464.03
2023-03-02T11:02:55.782Z,102459.09
2023-03-02T11:05:39.969Z,102463.81
2023-03-02T11:08:17.008Z,102462.44
2023-03-02T11:10:58.287Z,102458.44
2023-03-02T11:13:34.277Z,102456.38
2023-03-02T11:16:21.176Z,102448.56
2023-03-02T11:19:14.162Z,102451.09
2023-03-02T11:21:54.184Z,102437.94
2023-03-02T11:24:41.647Z,102436.91
2023-03-02T11:27:24.778Z,102427.13
2023-03-02T11:30:16.066Z,102418.03
2023-03-02T11:33:04.340Z,102420.34
2023-03-02T11:35:54.775Z,102406.75
2023-03-02T11:38:31.153Z,102409.03
2023-03-02T11:41:13.147Z,102407.59
2023-03-02T11:43:40.064Z,102410.56
2023-03-02T11:46:21.577Z,102416.13
2023-03-02T11:48:54.069Z,102409.44
2023-03-02T11:51:29.611Z,102400.03
2023-03-02T11:54:00.474Z,102416.00
2023-03-02T11:56:32.161Z,102411.19
2023-03-02T11:59:19.060Z,102401.19
2023-03-02T12:01:51.727Z,102407.50
2023-03-02T12:04:38.713Z,102408.63
2023-03-02T12:07:23.660Z,102398.56
2023-03-02T12:10:28.585Z,102385.41
2023-03-02T12:13:21.440Z,102404.91
2023-03-02T12:15:50.791Z,102405.34
2023-03-02T12:18:23.771Z,102394.31
2023-03-02T12:21:06.014Z,102395.47
2023-03-02T12:23:58.369Z,102394.75
2023-03-02T12:26:37.550Z,102399.50
2023-03-02T12:29:10.476Z,102390.16
2023-03-02T12:31:54.387Z,102391.94
2023-03-02T12:34:24.034Z,102385.88
2023-03-02T12:36:56.066Z,102377.91
2023-03-02T12:39:37.433Z,102388.44
2023-03-02T12:42:20.366Z,102388.28
2023-03-02T12:45:01.125Z,102381.13
2023-03-02T12:47:30.038Z,102383.34
2023-03-02T12:50:14.362Z,102370.00
2023-03-02T12:52:41.420Z,102376.09
2023-03-02T12:55:19.780Z,102375.84
2023-03-02T12:57:57.309Z,102353.69
2023-03-02T13:00:28.174Z,102358.84
2023-03-02T13:02:57.470Z,102359.31
2023-03-02T13:05:31.770Z,102353.41
2023-03-02T13:08:21.221Z,102356.31
2023-03-02T13:10:57.722Z,102355.44
2023-03-02T13:13:39.378Z,102353.94
2023-03-02T13:16:29.103Z,102345.50
2023-03-02T13:19:00.849Z,102338.19
2023-03-02T13:21:35.003Z,102335.16
2023-03-02T13:24:02.129Z,102329.06
2023-03-02T13:26:32.701Z,102338.41
2023-03-02T13:29:23.042Z,102342.19
2023-03-02T13:31:50.311Z,102345.75
2023-03-02T13:34:28.909Z,102345.91
2023-03-02T13:36:56.143Z,102347.72
2023-03-02T13:39:29.834Z,102343.59
2023-03-02T13:42:02.623Z,102331.72
2023-03-02T13:44:33.468Z,102328.50
2023-03-02T13:47:01.167Z,102331.19
2023-03-02T13:49:35.323Z,102325.38
2023-03-02T13:52:12.224Z,102316.00
2023-03-02T13:54:44.307Z,102304.56
2023-03-02T13:57:17.366Z,102303.59
2023-03-02T13:59:44.549Z,102297.63
2023-03-02T14:02:26.496Z,102314.97
2023-03-02T14:04:53.788Z,102288.81
2023-03-02T14:07:21.217Z,102300.38
2023-03-02T14:09:48.401Z,102293.25
2023-03-02T14:12:26.471Z,102283.03
2023-03-02T14:14:56.080Z,102278.84
2023-03-02T14:17:25.389Z,102275.53
2023-03-02T14:19:55.536Z,102268.38
2023-03-02T14:22:26.080Z,102271.16
2023-03-02T14:24:53.666Z,102259.72
2023-03-02T14:27:21.075Z,102263.75
2023-03-02T14:29:48.035Z,102251.50
2023-03-02T14:32:15.736Z,102261.16
2023-03-02T14:34:42.677Z,102251.66
2023-03-02T14:37:15.397Z,102252.38
2023-03-02T14:39:52.033Z,102260.03
2023-03-02T14:42:21.656Z,102243.66
2023-03-02T14:44:51.126Z,102242.84
2023-03-02T14:47:19.452Z,102237.53
2023-03-02T14:49:46.419Z,102237.53
2023-03-02T14:52:31.356Z,102234.78
2023-03-02T14:55:01.864Z,102233.09
2023-03-02T14:57:30.299Z,102230.50
2023-03-02T14:59:59.845Z,102233.09
2023-03-02T15:02:27.407Z,102230.34
2023-03-02T15:04:57.051Z,102231.19
2023-03-02T15:07:28.367Z,102233.66
2023-03-02T15:09:58.288Z,102225.78
2023-03-02T15:12:25.516Z,102225.84
2023-03-02T15:14:52.487Z,102224.94
2023-03-02T15:17:19.515Z,102239.66
2023-03-02T15:19:46.943Z,102220.63
2023-03-02T15:22:14.211Z,102219.94
2023-03-02T15:24:41.104Z,102214.00
2023-03-02T15:27:08.279Z,102214.06
2023-03-02T15:29:35.205Z,102213.19
2023-03-02T15:32:02.259Z,102211.41
2023-03-02T15:34:29.229Z,102189.41
2023-03-02T15:36:56.111Z,102215.59
2023-03-02T15:39:23.011Z,102199.88
2023-03-02T15:41:49.892Z,102202.56
2023-03-02T15:44:23.858Z,102200.69
2023-03-02T15:46:55.003Z,102190.59
2023-03-02T15:49:24.691Z,102195.84
2023-03-02T15:51:52.917Z,102201.03
2023-03-02T15:54:20.463Z,102196.66
2023-03-02T15:56:53.175Z,102198.34
2023-03-02T15:59:22.319Z,102199.94
2023-03-02T16:01:49.302Z,102198.81
2023-03-02T16:04:16.288Z,102193.97
2023-03-02T16:06:43.206Z,102186.03
2023-03-02T16:09:10.494Z,102200.38
2023-03-02T16:11:37.666Z,102196.59
2023-03-02T16:14:04.871Z,102202.69
2023-03-02T16:16:31.830Z,102205.19
2023-03-02T16:18:59.370Z,102202.53
2023-03-02T16:21:28.471Z,102205.19
2023-03-02T16:24:02.940Z,102194.00
2023-03-02T16:26:30.978Z,102198.34
2023-03-02T16:28:58.479Z,102200.31
2023-03-02T16:31:26.845Z,102197.72
2023-03-02T16:33:55.854Z,102199.16
2023-03-02T16:36:23.014Z,102184.63
2023-03-02T16:38:49.939Z,102201.56
2023-03-02T16:41:20.828Z,102208.25
2023-03-02T16:43:51.192Z,102211.56
2023-03-02T16:46:20.522Z,102215.28
2023-03-02T16:48:48.254Z,102212.06
2023-03-02T16:51:16.552Z,102213.41
2023-03-02T16:53:43.627Z,102213.56
2023-03-02T16:56:11.916Z,102200.06
2023-03-02T16:58:39.830Z,102200.66
2023-03-02T17:01:09.598Z,102195.13
2023-03-02T17:03:36.737Z,102204.09
2023-03-02T17:06:07.263Z,102193.59
2023-03-02T17:08:34.148Z,102198.34
2023-03-02T17:11:01.155Z,102200.47
2023-03-02T17:13:28.131Z,102206.75
2023-03-02T17:15:55.571Z,102202.63
2023-03-02T17:18:22.580Z,102205.47
2023-03-02T17:20:54.160Z,102204.84
2023-03-02T17:23:21.731Z,102205.88
2023-03-02T17:25:48.620Z,102202.59
2023-03-02T17:28:16.068Z,102207.84
2023-03-02T17:30:43.715Z,102213.16
2023-03-02T17:33:11.388Z,102205.53
2023-03-02T17:35:38.349Z,102188.56
2023-03-02T17:38:05.589Z,102209.06
2023-03-02T17:40:32.888Z,102201.41
2023-03-02T17:42:59.759Z,102199.63
2023-03-02T17:45:29.029Z,102206.97
2023-03-02T17:47:57.711Z,102198.50
2023-03-02T17:50:30.305Z,102204.44
2023-03-02T17:52:57.556Z,102202.69
2023-03-02T17:55:24.455Z,102208.63
2023-03-02T17:57:51.557Z,102215.47
2023-03-02T18:00:22.825Z,102210.31
2023-03-02T18:02:50.457Z,102218.94
2023-03-02T18:05:17.447Z,102226.88
2023-03-02T18:07:44.386Z,102220.91
2023-03-02T18:10:12.304Z,102214.94
2023-03-02T18:12:39.607Z,102214.56
2023-03-02T18:15:07.720Z,102216.72
2023-03-02T18:17:34.727Z,102214.44
2023-03-02T18:20:01.617Z,102200.78
2023-03-02T18:22:28.560Z,102210.94
2023-03-02T18:24:55.448Z,102216.81
2023-03-02T18:27:22.352Z,102210.69
2023-03-02T18:29:49.432Z,102212.38
2023-03-02T18:32:16.387Z,102216.72
2023-03-02T18:34:43.412Z,102214.13
2023-03-02T18:37:10.351Z,102219.19
2023-03-02T18:39:40.298Z,102219.28
2023-03-02T18:42:08.164Z,102215.75
2023-03-02T18:44:35.401Z,102215.00
2023-03-02T18:47:02.659Z,102209.59
2023-03-02T18:49:30.166Z,102217.59
2023-03-02T18:51:57.204Z,102222.75
2023-03-02T18:54:24.865Z,102213.97
2023-03-02T18:56:52.126Z,102226.88
2023-03-02T18:59:19.072Z,102227.66
2023-03-02T19:01:46.447Z,102220.75
2023-03-02T19:04:14.371Z,102235.31
2023-03-02T19:06:42.995Z,102220.56
2023-03-02T19:09:10.834Z,102218.72
2023-03-02T19:11:37.782Z,102225.47
2023-03-02T19:14:05.077Z,102226.25
2023-03-02T19:16:32.452Z,102226.25
2023-03-02T19:18:59.454Z,102229.56
2023-03-02T19:21:26.337Z,102220.06
2023-03-02T19:23:53.224Z,102219.81
2023-03-02T19:26:20.317Z,102230.38
2023-03-02T19:28:47.253Z,102221.50
2023-03-02T19:31:14.206Z,102223.53
2023-03-02T19:33:42.190Z,102212.06
2023-03-02T19:36:09.945Z,102226.09
2023-03-02T19:38:40.569Z,102226.19
2023-03-02T19:41:10.443Z,102220.94
2023-03-02T19:43:37.387Z,102221.81
2023-03-02T19:46:05.231Z,102223.47
2023-03-02T19:48:33.918Z,102218.19
2023-03-02T19:51:00.828Z,102219.03
2023-03-02T19:53:27.678Z,102218.03
2023-03-02T19:56:01.291Z,102223.03
2023-03-02T19:58:28.536Z,102214.94
2023-03-02T20:00:55.569Z,102224.53
2023-03-02T20:03:22.431Z,102218.41
2023-03-02T20:05:49.353Z,102220.00
2023-03-02T20:08:17.100Z,102230.16
2023-03-02T20:10:46.635Z,102225.00
2023-03-02T20:13:13.754Z,102234.53
2023-03-02T20:15:45.124Z,102237.00
2023-03-02T20:18:18.630Z,102230.97
2023-03-02T20:20:47.138Z,102230.09
2023-03-02T20:23:14.926Z,102233.44
2023-03-02T20:25:42.588Z,102245.44
2023-03-02T20:28:12.283Z,102232.56
2023-03-02T20:30:51.634Z,102231.69
2023-03-02T20:33:20.172Z,102229.00
2023-03-02T20:35:47.955Z,102235.16
2023-03-02T20:38:31.563Z,102230.09
2023-03-02T20:40:58.784Z,102226.59
2023-03-02T20:43:26.378Z,102235.31
2023-03-02T20:45:53.793Z,102235.31
2023-03-02T20:48:22.212Z,102234.44
2023-03-02T20:50:51.295Z,102229.28
2023-03-02T20:53:19.267Z,102225.88
2023-03-02T20:55:46.682Z,102215.66
2023-03-02T20:58:13.909Z,102201.53
2023-03-02T21:00:41.776Z,102214.78
2023-03-02T21:03:09.250Z,102207.06
2023-03-02T21:05:40.899Z,102213.19
2023-03-02T21:08:10.539Z,102212.38
2023-03-02T21:10:38.739Z,102220.19
2023-03-02T21:13:07.575Z,102214.13
2023-03-02T21:15:36.038Z,102209.88
2023-03-02T21:18:02.961Z,102209.97
2023-03-02T21:20:32.541Z,102212.53
2023-03-02T21:22:59.733Z,102206.59
2023-03-02T21:25:26.635Z,102205.78
2023-03-02T21:27:53.533Z,102199.03
2023-03-02T21:30:25.100Z,102193.97
2023-03-02T21:32:52.009Z,102193.25
2023-03-02T21:35:20.603Z,102188.81
2023-03-02T21:37:50.351Z,102177.41
2023-03-02T21:40:25.336Z,102191.38
2023-03-02T21:42:52.391Z,102194.03
2023-03-02T21:45:20.312Z,102186.22
2023-03-02T21:47:47.349Z,102181.84
2023-03-02T21:50:22.572Z,102182.69
2023-03-02T21:52:49.512Z,102176.69
2023-03-02T21:55:16.485Z,102176.69
2023-03-02T21:57:43.847Z,102178.50
2023-03-02T22:00:22.117Z,102167.00
2023-03-02T22:02:50.158Z,102172.44
2023-03-02T22:05:17.734Z,102167.28
2023-03-02T22:07:45.426Z,102182.69
2023-03-02T22:10:41.871Z,102180.81
2023-03-02T22:13:25.931Z,102165.16
2023-03-02T22:16:15.310Z,102153.66
2023-03-02T22:18:44.501Z,102155.50
2023-03-02T22:21:30.692Z,102159.78
2023-03-02T22:24:38.283Z,102165.81
2023-03-02T22:27:05.232Z,102163.31
2023-03-02T22:29:43.736Z,102173.53
2023-03-02T22:32:24.755Z,102161.63
2023-03-02T22:34:55.240Z,102172.00
2023-03-02T22:37:25.777Z,102172.88
2023-03-02T22:39:56.914Z,102165.97
2023-03-02T22:42:27.083Z,102165.00
2023-03-02T22:45:17.540Z,102166.59
2023-03-02T22:47:48.088Z,102165.72
2023-03-02T22:50:29.249Z,102174.34
2023-03-02T22:52:58.309Z,102184.56
2023-03-02T22:55:40.441Z,102186.28
2023-03-02T22:58:39.686Z,102175.72
2023-03-02T23:01:20.784Z,102176.44
2023-03-02T23:03:51.796Z,102172.06
2023-03-02T23:06:35.363Z,102169.47
2023-03-02T23:09:06.317Z,102160.81
2023-03-02T23:11:41.142Z,102159.00
2023-03-02T23:14:35.875Z,102159.00
2023-03-02T23:17:14.504Z,102148.38
2023-03-02T23:19:41.398Z,102172.97
2023-03-02T23:22:09.492Z,102155.81
2023-03-02T23:24:36.762Z,102154.22
2023-03-02T23:27:03.878Z,102155.81
2023-03-02T23:29:30.956Z,102161.69
2023-03-02T23:31:58.358Z,102162.41
2023-03-02T23:34:25.334Z,102156.28
2023-03-02T23:36:52.246Z,102148.44
2023-03-02T23:39:19.174Z,102144.72
2023-03-02T23:41:46.257Z,102155.28
2023-03-02T23:44:13.153Z,102154.56
2023-03-02T23:46:40.022Z,102146.84
2023-03-02T23:49:06.922Z,102153.84
2023-03-02T23:51:33.873Z,102140.19
2023-03-02T23:54:02.349Z,102146.28
2023-03-02T23:56:30.392Z,102127.31
2023-03-02T23:58:57.486Z,102140.34
